KDXR/DXR METAR and TAF weather

Enter ICAO airport designator
Station Type Date Time Source
KDXR METAR 2020/05/30 04:28 UTC NOAA

KDXR 300428Z AUTO 18004KT 10SM FEW006 BKN120 19/18 A2989 RMK AO2 T01940183


Station Type Date Time Source
KDXR Decoded METAR 2020/05/30 04:28 UTC NOAA

DANBURY MUNICIPAL AIRPORT, CT, United States (KDXR) 41-22N 073-29W 139M
May 30, 2020 - 12:28 AM EDT / 2020.05.30 0428 UTC
Wind: from the S (180 degrees) at 5 MPH (4 KT):0
Visibility: 10 mile(s):0
Sky conditions: mostly cloudy
Temperature: 66.9 F (19.4 C)
Dew Point: 64.9 F (18.3 C)
Relative Humidity: 93%
Pressure (altimeter): 29.89 in. Hg (1012 hPa)
ob: KDXR 300428Z AUTO 18004KT 10SM FEW006 BKN120 19/18 A2989 RMK AO2 T01940183
cycle: 4

Station Type Date Time Source
KDXR TAF UTC NOAA

Error!

Example: see airport list